Weather station in Munich

Current measurement: 26.7°C and 955.12hPa and 78.39% humidity and 587ppm CO2
(at 2024-07-15 11:11:51 )

Previous Measurements

Show/Hide
IDdevice_idTemperaturePressureHumidityCO2Timestamp
20810weather8080726.7°C955.12hPa78.39%587ppm2024-07-15 11:11:51
20809weather8080726.6°C955.13hPa78.3%556ppm2024-07-15 10:56:27
20808weather8080726.6°C955.16hPa78.17%595ppm2024-07-15 10:41:03
20807weather8080726.6°C955.08hPa78.33%670ppm2024-07-15 10:25:40
20806weather8080726.5°C955.01hPa78.52%621ppm2024-07-15 10:10:16
20805weather8080726.4°C955.37hPa78.67%725ppm2024-07-15 09:54:53
20804weather8080726.3°C955.41hPa78.63%776ppm2024-07-15 09:39:30
20803weather8080726.2°C955.51hPa78.93%766ppm2024-07-15 09:24:07
20802weather8080726°C955.64hPa79.39%741ppm2024-07-15 09:08:44
20801weather8080725.9°C955.71hPa79.44%661ppm2024-07-15 08:53:21
20800weather8080725.9°C955.8hPa79.26%551ppm2024-07-15 08:37:58
20799weather8080725.9°C955.84hPa78.8%500ppm2024-07-15 08:22:35
20798weather8080725.6°C955.86hPa78.93%440ppm2024-07-15 08:07:11
20797weather8080725.6°C955.77hPa78.67%385ppm2024-07-15 07:51:47
20796weather8080725.4°C955.78hPa78.23%300ppm2024-07-15 07:36:24
20795weather8080725.1°C955.73hPa78.34%348ppm2024-07-15 07:21:01
20794weather8080725°C955.64hPa78.46%342ppm2024-07-15 07:05:38
20793weather8080724.9°C955.56hPa78.49%370ppm2024-07-15 06:50:14
20792weather8080724.8°C955.57hPa78.57%320ppm2024-07-15 06:34:50
20791weather8080724.8°C955.58hPa78.64%340ppm2024-07-15 06:19:25
20790weather8080724.7°C955.52hPa78.66%335ppm2024-07-15 06:04:03
20789weather8080724.7°C955.62hPa78.64%400ppm2024-07-15 05:48:40
20788weather8080724.6°C955.58hPa78.6%389ppm2024-07-15 05:33:18
20787weather8080724.6°C955.6hPa78.57%322ppm2024-07-15 05:17:55
20786weather8080724.7°C955.66hPa78.29%360ppm2024-07-15 05:02:32
20785weather8080724.7°C955.59hPa74.43%2312ppm2024-07-15 04:47:08
20784weather8080724.8°C955.53hPa74.41%2349ppm2024-07-15 04:31:45
20783weather8080724.7°C955.77hPa78.35%382ppm2024-07-15 04:01:00
20782weather8080724.7°C955.86hPa78.25%415ppm2024-07-15 03:45:36
20781weather8080724.8°C955.92hPa78.19%418ppm2024-07-15 03:30:13
20780weather8080724.8°C955.81hPa78.05%447ppm2024-07-15 03:14:49
20779weather8080724.8°C955.84hPa77.95%449ppm2024-07-15 02:59:25
20778weather8080724.9°C955.69hPa77.86%520ppm2024-07-15 02:44:03
20777weather8080724.9°C955.75hPa77.71%482ppm2024-07-15 02:28:40
20776weather8080725°C955.76hPa77.55%496ppm2024-07-15 02:13:17
20775weather8080725°C955.83hPa77.5%542ppm2024-07-15 01:57:54
20774weather8080725.1°C955.88hPa77.26%512ppm2024-07-15 01:42:30
20773weather8080725.2°C955.89hPa77.19%655ppm2024-07-15 01:27:08
20772weather8080725.6°C955.93hPa72.66%2656ppm2024-07-15 01:11:44
20771weather8080725.7°C955.91hPa72.64%2595ppm2024-07-15 00:56:21
20770weather8080725.6°C955.9hPa72%2386ppm2024-07-15 00:25:36
20769weather8080725.6°C956.12hPa75.63%303ppm2024-07-14 23:54:51
20768weather8080725.7°C956.23hPa75.75%305ppm2024-07-14 23:39:29
20767weather8080725.6°C956.31hPa75.48%349ppm2024-07-14 23:24:06
20766weather8080725.7°C956.41hPa75.3%371ppm2024-07-14 23:08:44
20765weather8080725.7°C956.27hPa75.46%372ppm2024-07-14 22:53:20
20764weather8080725.7°C956.26hPa74.69%424ppm2024-07-14 22:37:56
20763weather8080725.8°C956.32hPa72.47%314ppm2024-07-14 22:22:32
20762weather8080725.9°C956.46hPa71.94%312ppm2024-07-14 22:07:10
20761weather8080725.7°C956.18hPa71.9%304ppm2024-07-14 21:51:47
20760weather8080725.8°C956.22hPa71.55%379ppm2024-07-14 21:36:24
20759weather8080725.8°C956.18hPa71.08%401ppm2024-07-14 21:21:02
20758weather8080725.9°C956.15hPa71.33%353ppm2024-07-14 21:05:39
20757weather8080725.8°C956.09hPa71.33%2275ppm2024-07-14 20:50:13
20756weather8080725.1°C956.04hPa71.68%2406ppm2024-07-14 20:34:54
20755weather8080725.7°C956.27hPa68.57%2108ppm2024-07-14 20:04:30
20754weather8080725.7°C955.93hPa68.96%2109ppm2024-07-14 19:33:46
20753weather8080725.7°C955.82hPa68.92%2090ppm2024-07-14 19:03:02
20752weather8080725.7°C955.69hPa68.95%2096ppm2024-07-14 18:47:39
20751weather8080725.7°C955.44hPa69.45%2122ppm2024-07-14 18:16:55
20750weather8080725.7°C955.47hPa72.91%175ppm2024-07-14 17:46:08
20749weather8080725.7°C955.44hPa72.65%158ppm2024-07-14 17:30:46
20748weather8080725.7°C955.45hPa72.43%204ppm2024-07-14 17:15:21
20747weather8080725.7°C955.53hPa71.78%168ppm2024-07-14 16:59:58
20746weather8080725.7°C955.49hPa71.79%189ppm2024-07-14 16:44:35
20745weather8080725.6°C955.48hPa71.77%192ppm2024-07-14 16:29:10
20744weather8080725.6°C955.45hPa72.35%193ppm2024-07-14 16:13:47
20743weather8080725.7°C955.53hPa73.69%194ppm2024-07-14 15:58:24
20742weather8080725.7°C955.41hPa70.53%2138ppm2024-07-14 15:43:02
20741weather8080725.7°C955.53hPa70.48%2126ppm2024-07-14 15:27:39
20740weather8080725.8°C955.54hPa72.41%2173ppm2024-07-14 14:56:53
20739weather8080725.5°C955.56hPa77.87%299ppm2024-07-14 14:26:08
20738weather8080725.6°C955.7hPa77.42%262ppm2024-07-14 14:10:44
20737weather8080725.5°C955.75hPa77.4%256ppm2024-07-14 13:55:20
20736weather8080725.5°C955.75hPa77.46%257ppm2024-07-14 13:39:57
20735weather8080725.5°C955.83hPa74.27%2037ppm2024-07-14 13:24:34
20734weather8080725.5°C955.85hPa74.26%2269ppm2024-07-14 13:09:11
20733weather8080725.3°C955.79hPa77.09%200ppm2024-07-14 12:38:25
20732weather8080725.3°C955.82hPa78.11%177ppm2024-07-14 12:23:01
20731weather8080725.2°C955.83hPa79.33%281ppm2024-07-14 12:07:37
20730weather8080725.3°C955.85hPa81.21%475ppm2024-07-14 11:52:14
20729weather8080725.3°C955.8hPa80.83%381ppm2024-07-14 11:36:50
20728weather8080725.3°C955.95hPa80.4%212ppm2024-07-14 11:21:26
20727weather8080725.3°C956.01hPa76.56%2180ppm2024-07-14 11:06:03
20726weather8080725.3°C956.05hPa76.55%2142ppm2024-07-14 10:50:39
20725weather8080725.2°C956.06hPa76.21%2158ppm2024-07-14 10:19:54
20724weather8080725.2°C956.18hPa76.19%2124ppm2024-07-14 10:04:31
20723weather8080725.1°C956.16hPa75.78%2150ppm2024-07-14 09:33:47
20722weather8080725°C956.21hPa76.15%2168ppm2024-07-14 09:03:01
20721weather8080725.1°C956.17hPa76.64%2195ppm2024-07-14 08:32:16
20720weather8080725.1°C956.27hPa81.22%268ppm2024-07-14 08:01:31
20719weather8080725°C956.17hPa81.04%289ppm2024-07-14 07:46:07
20718weather8080725°C956.14hPa80.72%289ppm2024-07-14 07:30:44
20717weather8080725.1°C955.94hPa77.02%2226ppm2024-07-14 07:15:21
20716weather8080725.1°C955.77hPa77.01%2205ppm2024-07-14 06:59:59
20715weather8080725.1°C955.6hPa76.77%1915ppm2024-07-14 06:29:15
20714weather8080725.1°C955.47hPa76.8%2175ppm2024-07-14 06:13:53
20713weather8080725.2°C955.21hPa76.78%2181ppm2024-07-14 05:43:09
20712weather8080725.1°C955.18hPa76.78%2159ppm2024-07-14 05:12:25
20711weather8080725.1°C955.09hPa76.87%2167ppm2024-07-14 04:41:41
20710weather8080725.1°C955.04hPa80.98%267ppm2024-07-14 04:10:55
20709weather8080725.1°C955.1hPa80.68%253ppm2024-07-14 03:55:31
20708weather8080725.2°C955.33hPa76.79%2201ppm2024-07-14 03:40:07
20707weather8080725.2°C955.34hPa76.79%2170ppm2024-07-14 03:24:45
20706weather8080725.2°C955.47hPa77.06%2192ppm2024-07-14 02:54:02
20705weather8080725.2°C955.4hPa77.37%2238ppm2024-07-14 02:23:17
20704weather8080725.1°C955.42hPa77.69%2211ppm2024-07-14 01:52:33
20703weather8080725.2°C955.53hPa78.1%2221ppm2024-07-14 01:21:49
20702weather8080725.1°C955.85hPa78.28%2328ppm2024-07-14 00:51:05
20701weather8080725.1°C955.74hPa78.26%2329ppm2024-07-14 00:35:42
20700weather8080725.1°C955.63hPa78.12%2375ppm2024-07-14 00:04:58
20699weather8080725°C955.7hPa82.02%308ppm2024-07-13 23:34:12
20698weather8080724.9°C955.8hPa82.08%322ppm2024-07-13 23:18:48
20697weather8080724.8°C955.81hPa81.8%234ppm2024-07-13 23:03:25
20696weather8080723.8°C955.86hPa81.25%294ppm2024-07-13 22:48:01
20695weather8080723.6°C955.75hPa81.51%305ppm2024-07-13 22:32:39
20694weather8080725.1°C955.69hPa81.66%315ppm2024-07-13 22:17:15
20693weather8080725°C955.57hPa78.57%2376ppm2024-07-13 22:01:51
20692weather8080725°C955.5hPa78.59%2401ppm2024-07-13 21:46:28
20691weather8080724.1°C955.43hPa85.45%126ppm2024-07-13 21:15:43
20690weather8080722°C955.52hPa85.77%70ppm2024-07-13 21:00:20
20689weather8080721.9°C955.55hPa80.86%92ppm2024-07-13 20:44:57
20688weather8080725.3°C955.41hPa80.68%91ppm2024-07-13 20:29:35
20687weather8080725.3°C955.46hPa80.64%100ppm2024-07-13 20:14:12
20686weather8080725.1°C955.45hPa80.48%66ppm2024-07-13 19:58:49
20685weather8080725.3°C955.26hPa80.24%119ppm2024-07-13 19:43:25
20684weather8080725.1°C955.26hPa79.89%146ppm2024-07-13 19:28:03
20683weather8080725.3°C955.14hPa76.07%2276ppm2024-07-13 19:12:39
20682weather8080725.3°C955.27hPa76.08%2251ppm2024-07-13 18:57:15
20681weather8080725.3°C955.14hPa78.77%321ppm2024-07-13 18:26:31
20680weather8080725.5°C955.16hPa78.29%280ppm2024-07-13 18:11:09
20679weather8080725.7°C954.98hPa77.43%167ppm2024-07-13 17:55:45
20678weather8080725.5°C955.14hPa77.04%185ppm2024-07-13 17:40:21
20677weather8080725.6°C955.11hPa73.52%2354ppm2024-07-13 17:24:58
20676weather8080725.6°C955.08hPa73.55%2354ppm2024-07-13 17:09:35
20675weather8080725.4°C955.23hPa73.12%2455ppm2024-07-13 16:38:49
20674weather8080725.4°C955.25hPa72.62%2387ppm2024-07-13 16:08:05
20673weather8080725°C955.18hPa71.62%2273ppm2024-07-13 15:37:20
20672weather8080724.5°C955.26hPa74.24%125ppm2024-07-13 15:06:35
20671weather8080725.3°C955.31hPa73.77%155ppm2024-07-13 14:51:13
20670weather8080725.2°C955.25hPa70.98%2316ppm2024-07-13 14:35:50
20669weather8080725.4°C955.29hPa70.95%2316ppm2024-07-13 14:20:26
20668weather8080725.7°C955.18hPa70.83%2262ppm2024-07-13 13:49:42
20667weather8080725.6°C955.21hPa74.34%171ppm2024-07-13 13:18:57
20666weather8080725.7°C955.13hPa72.24%1971ppm2024-07-13 13:03:34
20665weather8080725.4°C955.16hPa72.25%2173ppm2024-07-13 12:48:10
20664weather8080725.5°C955.03hPa74.76%140ppm2024-07-13 12:17:27
20663weather8080725.4°C955.09hPa75.38%172ppm2024-07-13 12:02:03
20662weather8080725.5°C955.05hPa76.8%170ppm2024-07-13 11:46:39
20661weather8080725.7°C955.22hPa77.09%108ppm2024-07-13 11:31:16
20660weather8080725.6°C955.13hPa76.93%149ppm2024-07-13 11:15:54
20659weather8080725.7°C955.13hPa76.91%128ppm2024-07-13 11:00:31
20658weather8080725.7°C955.24hPa77.53%150ppm2024-07-13 10:45:08
20657weather8080725.7°C955.13hPa77.91%156ppm2024-07-13 10:29:45
20656weather8080725.6°C955.06hPa78.14%163ppm2024-07-13 10:14:21
20655weather8080725.5°C955.11hPa78.32%141ppm2024-07-13 09:58:58
20654weather8080725.6°C954.94hPa78.07%160ppm2024-07-13 09:43:35
20653weather8080725.6°C954.96hPa74.63%2163ppm2024-07-13 09:28:11
20652weather8080725.5°C954.97hPa74.62%2177ppm2024-07-13 09:12:48
20651weather8080725.6°C954.91hPa75.68%2239ppm2024-07-13 08:42:03
20650weather8080725.5°C954.87hPa79.92%300ppm2024-07-13 08:11:18
20649weather8080725.5°C954.87hPa79.68%148ppm2024-07-13 07:55:55
20648weather8080725.5°C954.84hPa79.45%123ppm2024-07-13 07:40:32
20647weather8080725.3°C954.74hPa75.97%1880ppm2024-07-13 07:25:09
20646weather8080725.4°C954.76hPa75.95%2159ppm2024-07-13 07:09:46
20645weather8080725.3°C954.86hPa80.03%129ppm2024-07-13 06:39:00
20644weather8080725.3°C954.96hPa80.16%148ppm2024-07-13 06:23:37
20643weather8080725.3°C954.86hPa80.29%108ppm2024-07-13 06:08:13
20642weather8080725.3°C954.74hPa80.58%176ppm2024-07-13 05:52:51
20641weather8080725.4°C954.52hPa80.76%173ppm2024-07-13 05:37:27
20640weather8080725.4°C954.46hPa80.81%162ppm2024-07-13 05:22:04
20639weather8080725.5°C954.6hPa80.85%146ppm2024-07-13 05:06:42
20638weather8080725.4°C954.49hPa80.95%161ppm2024-07-13 04:51:19
20637weather8080725.4°C954.64hPa80.91%137ppm2024-07-13 04:35:56
20636weather8080725.4°C954.68hPa80.87%128ppm2024-07-13 04:20:32
20635weather8080725.6°C954.85hPa80.92%122ppm2024-07-13 04:05:09
20634weather8080725.5°C954.9hPa80.87%150ppm2024-07-13 03:49:46
20633weather8080725.5°C954.8hPa80.83%174ppm2024-07-13 03:34:22
20632weather8080725.5°C954.37hPa80.72%141ppm2024-07-13 03:18:59
20631weather8080725.6°C954.44hPa77.09%2180ppm2024-07-13 03:03:36
20630weather8080725.6°C954.73hPa77.08%2169ppm2024-07-13 02:48:14
20629weather8080725.6°C954.13hPa77.16%2170ppm2024-07-13 02:17:30
20628weather8080725.6°C953.64hPa77.44%2172ppm2024-07-13 01:46:45
20627weather8080725.7°C954.16hPa77.79%2173ppm2024-07-13 01:16:01
20626weather8080725.7°C954.31hPa77.85%2161ppm2024-07-13 01:00:39
20625weather8080725.7°C954.74hPa78.35%2204ppm2024-07-13 00:29:55
20624weather8080725.8°C954.6hPa82.59%211ppm2024-07-12 23:59:08
20623weather8080725.7°C954.62hPa82.58%165ppm2024-07-12 23:43:46
20622weather8080725.8°C954.85hPa82.77%240ppm2024-07-12 23:28:22
20621weather8080725.7°C954.61hPa83.01%253ppm2024-07-12 23:12:59
20620weather8080725.7°C954.34hPa82.99%285ppm2024-07-12 22:57:36
20619weather8080725.9°C954.27hPa83.23%278ppm2024-07-12 22:42:12
20618weather8080725.8°C954.03hPa83.55%288ppm2024-07-12 22:26:48
20617weather8080725.8°C954.65hPa82.93%219ppm2024-07-12 22:11:25
20616weather8080725.6°C953.85hPa82.31%149ppm2024-07-12 21:56:02
20615weather8080725.8°C953.67hPa82.05%148ppm2024-07-12 21:40:38
20614weather8080726.1°C954hPa80.75%165ppm2024-07-12 21:25:16
20613weather8080726.4°C952.79hPa77.11%2154ppm2024-07-12 21:09:52
20612weather8080726.3°C950.95hPa77.11%2187ppm2024-07-12 20:54:29
20611weather8080726.7°C951.11hPa82.48%136ppm2024-07-12 20:23:44
20610weather8080726.8°C950.77hPa82.6%159ppm2024-07-12 20:08:21
20609weather8080726.9°C950.35hPa82.15%155ppm2024-07-12 19:52:58
20608weather8080726.9°C950.11hPa82.4%164ppm2024-07-12 19:37:34
20607weather8080726.8°C949.95hPa79.09%2236ppm2024-07-12 19:22:11
20606weather8080727°C949.77hPa79.12%2257ppm2024-07-12 19:06:48
20605weather8080727°C950.02hPa80.08%2127ppm2024-07-12 18:36:02
20604weather8080727°C950.41hPa80.12%2353ppm2024-07-12 18:20:39
20603weather8080727°C950.81hPa85.01%406ppm2024-07-12 17:49:53
20602weather8080727°C950.98hPa84.97%387ppm2024-07-12 17:34:29
20601weather8080727.1°C951.3hPa81.38%2575ppm2024-07-12 17:19:05
20600weather8080727°C951.6hPa81.39%2539ppm2024-07-12 17:03:43
20599weather8080727°C951.95hPa86.01%309ppm2024-07-12 16:32:58
20598weather8080727°C952.15hPa86.15%323ppm2024-07-12 16:17:35
20597weather8080727°C951.92hPa86.15%377ppm2024-07-12 16:02:11
20596weather8080727°C951.81hPa86.12%312ppm2024-07-12 15:46:47
20595weather8080727°C952.07hPa86.18%366ppm2024-07-12 15:31:23
20594weather8080726.9°C952.31hPa85.89%326ppm2024-07-12 15:16:00
20593weather8080726.9°C952.48hPa82%2356ppm2024-07-12 15:00:37
20592weather8080726.9°C952.38hPa82.03%2417ppm2024-07-12 14:45:15
20591weather8080726.9°C952.71hPa82.39%2401ppm2024-07-12 14:14:31
20590weather8080726.7°C952.96hPa86.49%267ppm2024-07-12 13:43:45
20589weather8080726.7°C953.18hPa82.77%2243ppm2024-07-12 13:28:22
20588weather8080726.7°C953.33hPa82.81%2299ppm2024-07-12 13:12:58
20587weather8080726.6°C953.58hPa82.63%2123ppm2024-07-12 12:42:12
20586weather8080726.5°C953.7hPa82.62%2233ppm2024-07-12 12:26:48
20585weather8080726.6°C954.03hPa86.74%360ppm2024-07-12 11:56:04
20584weather8080726.6°C954.16hPa86.55%333ppm2024-07-12 11:40:40
20583weather8080726.7°C953.98hPa86.54%238ppm2024-07-12 11:25:17
20582weather8080726.7°C953.67hPa86.28%247ppm2024-07-12 11:09:55
20581weather8080726.6°C953.72hPa86.22%263ppm2024-07-12 10:54:31
20580weather8080726.7°C953.78hPa85.99%192ppm2024-07-12 10:39:09
20579weather8080726.7°C953.66hPa86.07%209ppm2024-07-12 10:23:46
20578weather8080726.5°C953.63hPa86.66%304ppm2024-07-12 10:08:23
20577weather8080726.5°C953.62hPa86.82%421ppm2024-07-12 09:52:58
20576weather8080726.6°C953.74hPa86.64%289ppm2024-07-12 09:37:36
20575weather8080726.5°C953.61hPa86.67%300ppm2024-07-12 09:22:12
20574weather8080726.5°C953.89hPa86.63%220ppm2024-07-12 09:06:49
20573weather8080726.4°C954.06hPa86.68%214ppm2024-07-12 08:51:25
20572weather8080726.3°C953.93hPa86.39%211ppm2024-07-12 08:36:01
20571weather8080726.3°C953.94hPa85.99%192ppm2024-07-12 08:20:38
20570weather8080726.3°C953.9hPa85.85%177ppm2024-07-12 08:05:14
20569weather8080726.2°C953.84hPa85.88%188ppm2024-07-12 07:49:51
20568weather8080726.2°C953.58hPa86.22%184ppm2024-07-12 07:34:28
20567weather8080726°C953.76hPa86.91%208ppm2024-07-12 07:19:04
20566weather8080726.1°C953.78hPa83.17%2046ppm2024-07-12 07:03:40
20565weather8080726.2°C953.65hPa83.19%2247ppm2024-07-12 06:48:16
20564weather8080726°C953.93hPa83.45%2252ppm2024-07-12 06:17:30
20563weather8080726.1°C954.18hPa83.73%2238ppm2024-07-12 05:46:47
20562weather8080725.9°C954.53hPa88.03%157ppm2024-07-12 05:16:02
20561weather8080725.9°C954.6hPa88.15%202ppm2024-07-12 05:00:38
20560weather8080725.8°C954.58hPa88.17%197ppm2024-07-12 04:45:15
20559weather8080726°C954.4hPa88.15%164ppm2024-07-12 04:29:52
20558weather8080726°C954.48hPa88.16%157ppm2024-07-12 04:14:28
20557weather8080726°C954.59hPa88.22%161ppm2024-07-12 03:59:04
20556weather8080726.1°C954.51hPa87.78%189ppm2024-07-12 03:43:41
20555weather8080726.1°C954.78hPa84.01%2218ppm2024-07-12 03:28:18
20554weather8080726.3°C955.04hPa84.01%2192ppm2024-07-12 03:12:54
20553weather8080726.1°C955.31hPa84.18%2178ppm2024-07-12 02:42:09
20552weather8080726.2°C955.79hPa84.41%2178ppm2024-07-12 02:11:23
20551weather8080726.2°C956.13hPa84.76%2225ppm2024-07-12 01:40:40
20550weather8080726.3°C956.49hPa89.31%191ppm2024-07-12 01:09:56
20549weather8080726.3°C956.85hPa88.93%195ppm2024-07-12 00:54:32
20548weather8080726.4°C956.98hPa88.96%269ppm2024-07-12 00:39:08
20547weather8080726.5°C957.21hPa88.93%257ppm2024-07-12 00:23:45
20546weather8080726.4°C957.21hPa84.54%2201ppm2024-07-12 00:08:21
20545weather8080726.5°C957.37hPa84.57%2443ppm2024-07-11 23:52:57
20544weather8080726.1°C957.52hPa89.74%279ppm2024-07-11 23:22:13
20543weather8080726°C957.74hPa84.84%277ppm2024-07-11 23:06:49
20542weather8080726.4°C956.91hPa80.72%2378ppm2024-07-11 22:51:26
20541weather8080726.4°C957.6hPa80.72%2327ppm2024-07-11 22:36:03
20540weather8080726.4°C957.55hPa80.75%2374ppm2024-07-11 22:05:17
20539weather8080726.5°C957.34hPa80.91%2438ppm2024-07-11 21:34:33
20538weather8080726.4°C957.41hPa84.69%229ppm2024-07-11 21:03:49
20537weather8080726.4°C957.36hPa84.72%204ppm2024-07-11 20:48:24
20536weather8080726.4°C957.51hPa84.8%197ppm2024-07-11 20:33:01
20535weather8080726.3°C957.36hPa84.82%218ppm2024-07-11 20:17:37
20534weather8080726.3°C957.27hPa84.66%256ppm2024-07-11 20:02:13
20533weather8080726.4°C957.38hPa80.35%2325ppm2024-07-11 19:46:49
20532weather8080726.4°C957.37hPa80.34%2300ppm2024-07-11 19:31:26
20531weather8080726.4°C957.38hPa84.49%214ppm2024-07-11 19:00:41
20530weather8080726.4°C957.37hPa84.43%195ppm2024-07-11 18:45:18
20529weather8080726.3°C957.33hPa84.34%309ppm2024-07-11 18:29:54
20528weather8080726.3°C957.49hPa84.88%127ppm2024-07-11 18:14:30
20527weather8080726.3°C957.44hPa84.7%843ppm2024-07-11 17:59:08
20526weather8080726.3°C957.73hPa84.59%182ppm2024-07-11 17:43:44
20525weather8080726.3°C957.81hPa84.42%219ppm2024-07-11 17:28:20
20524weather8080726.3°C957.79hPa84.46%214ppm2024-07-11 17:12:57
20523weather8080726.3°C958.02hPa84.47%234ppm2024-07-11 16:57:33
20522weather8080726.3°C957.94hPa84.76%204ppm2024-07-11 16:42:10
20521weather8080726.3°C958hPa84.73%228ppm2024-07-11 16:26:46
20520weather8080726.3°C958.01hPa84.46%181ppm2024-07-11 16:11:22
20519weather8080726.3°C958.12hPa84.65%246ppm2024-07-11 15:56:00
20518weather8080726.3°C958.3hPa84.79%223ppm2024-07-11 15:40:37
20517weather8080726.3°C958.49hPa84.59%239ppm2024-07-11 15:25:14
20516weather8080726.3°C958.62hPa84.81%215ppm2024-07-11 15:09:51
20515weather8080726.3°C958.67hPa80.82%2375ppm2024-07-11 14:54:28
20514weather8080726.3°C958.74hPa80.78%2293ppm2024-07-11 14:39:06
20513weather8080726.3°C958.86hPa84.94%245ppm2024-07-11 14:08:20
20512weather8080726.2°C958.89hPa85.36%264ppm2024-07-11 13:52:57
20511weather8080726.2°C959.05hPa85.38%258ppm2024-07-11 13:37:34
20510weather8080726.2°C959.11hPa85.57%193ppm2024-07-11 13:22:11
20509weather8080726.2°C959.21hPa85.38%164ppm2024-07-11 13:06:47
20508weather8080726.2°C959.09hPa81.57%2249ppm2024-07-11 12:51:24
20507weather8080726.2°C959.15hPa81.58%2291ppm2024-07-11 12:36:01
20506weather8080726.1°C959.12hPa85.65%215ppm2024-07-11 12:05:16
20505weather8080726.1°C959.32hPa85.68%269ppm2024-07-11 11:49:52
20504weather8080726.1°C959.22hPa85.52%282ppm2024-07-11 11:34:29
20503weather8080726.1°C959.12hPa85.43%245ppm2024-07-11 11:19:05
20502weather8080726.1°C959.17hPa81.79%2342ppm2024-07-11 11:03:41
20501weather8080726.1°C959.25hPa81.8%2340ppm2024-07-11 10:48:18
20500weather8080726.1°C959.31hPa85.82%292ppm2024-07-11 10:17:31
20499weather8080726.1°C959.38hPa85.89%288ppm2024-07-11 10:02:08
20498weather8080726°C959.24hPa85.91%332ppm2024-07-11 09:46:44
20497weather8080726°C959.47hPa86.08%278ppm2024-07-11 09:31:21
20496weather8080726°C959.41hPa86.09%305ppm2024-07-11 09:15:58
20495weather8080726°C959.32hPa86.07%333ppm2024-07-11 09:00:36
20494weather8080725.9°C959.37hPa86.2%332ppm2024-07-11 08:45:12
20493weather8080725.9°C959.23hPa83.21%2098ppm2024-07-11 08:29:50
20492weather8080725.8°C959.33hPa83.2%2340ppm2024-07-11 08:14:27
20491weather8080726°C959.25hPa81.51%2258ppm2024-07-11 07:43:43
20490weather8080726°C959.24hPa81.67%2258ppm2024-07-11 07:12:57
20489weather8080725.9°C959.31hPa81.54%2242ppm2024-07-11 06:42:13
20488weather8080726°C959.2hPa81.62%2251ppm2024-07-11 06:11:29
20487weather8080725.9°C959.15hPa81.83%2246ppm2024-07-11 05:40:43
20486weather8080725.9°C959.2hPa85.84%209ppm2024-07-11 05:09:59
20485weather8080725.9°C958.98hPa81.87%2223ppm2024-07-11 04:54:35
20484weather8080726°C958.9hPa81.9%2232ppm2024-07-11 04:39:12
20483weather8080726°C958.69hPa82.14%2240ppm2024-07-11 04:08:26
20482weather8080726°C958.77hPa82.23%2253ppm2024-07-11 03:37:41
20481weather8080725.9°C959.04hPa82.54%2259ppm2024-07-11 03:06:55
20480weather8080725.9°C958.98hPa86.93%225ppm2024-07-11 02:36:09
20479weather8080726°C959.09hPa87.1%202ppm2024-07-11 02:20:47
20478weather8080726°C959.19hPa87.17%208ppm2024-07-11 02:05:24
20477weather8080726°C959.12hPa87.31%198ppm2024-07-11 01:50:00
20476weather8080726°C959.27hPa87.25%218ppm2024-07-11 01:34:36
20475weather8080726°C959.49hPa87.15%251ppm2024-07-11 01:19:12
20474weather8080726°C959.52hPa83.22%2175ppm2024-07-11 01:03:49
20473weather8080726°C959.38hPa83.21%2244ppm2024-07-11 00:48:26
20472weather8080725.9°C959.51hPa83.53%2292ppm2024-07-11 00:17:40
20471weather8080725.8°C959.51hPa87.95%226ppm2024-07-10 23:46:54
20470weather8080725.8°C959.57hPa88.04%249ppm2024-07-10 23:31:30
20469weather8080725.7°C959.59hPa87.76%233ppm2024-07-10 23:16:06
20468weather8080725.6°C959.38hPa88.11%197ppm2024-07-10 23:00:42
20467weather8080725.4°C959.61hPa89.02%168ppm2024-07-10 22:45:18
20466weather8080724.8°C959.5hPa88.79%115ppm2024-07-10 22:29:55
20465weather8080724.3°C959.53hPa88.28%116ppm2024-07-10 22:14:31
20464weather8080724.8°C959.61hPa86.59%340ppm2024-07-10 21:59:08
20463weather8080726°C959.58hPa86.78%374ppm2024-07-10 21:43:46
20462weather8080726°C959.36hPa86.47%388ppm2024-07-10 21:28:22
20461weather8080726°C959.11hPa86.05%383ppm2024-07-10 21:12:58
20460weather8080725.9°C959.11hPa86.1%292ppm2024-07-10 20:57:34
20459weather8080725.9°C959.05hPa82.47%2246ppm2024-07-10 20:42:10
20458weather8080725.9°C959.2hPa82.5%2274ppm2024-07-10 20:26:47
20457weather8080725.4°C958.97hPa84.69%1879ppm2024-07-10 19:56:02
20456weather8080725.7°C959.06hPa84.69%2157ppm2024-07-10 19:40:39
20455weather8080726°C959hPa82.14%2358ppm2024-07-10 19:09:56
20454weather8080725.9°C958.93hPa79.49%2635ppm2024-07-10 18:39:10
20453weather8080725.9°C958.95hPa79.54%2668ppm2024-07-10 18:08:26
20452weather8080725.9°C959.12hPa79.66%2657ppm2024-07-10 17:37:41
20451weather8080725.8°C958.94hPa83.61%524ppm2024-07-10 17:06:55
20450weather8080725.8°C958.83hPa83.65%511ppm2024-07-10 16:51:31
20449weather8080725.8°C958.75hPa83.41%500ppm2024-07-10 16:36:08
20448weather8080725.8°C958.68hPa83.07%518ppm2024-07-10 16:20:44
20447weather8080725.9°C958.54hPa79.46%2692ppm2024-07-10 16:05:21
20446weather8080725.9°C958.17hPa79.49%2702ppm2024-07-10 15:49:58
20445weather8080725.9°C958.21hPa79.77%2720ppm2024-07-10 15:19:12
20444weather8080725.9°C957.66hPa79.95%2744ppm2024-07-10 14:48:28
20443weather8080725.9°C957.66hPa84.04%568ppm2024-07-10 14:17:43
20442weather8080725.8°C958.06hPa83.94%603ppm2024-07-10 14:02:19
20441weather8080725.9°C958.11hPa83.87%595ppm2024-07-10 13:46:56
20440weather8080725.8°C958.2hPa83.68%563ppm2024-07-10 13:31:33
20439weather8080725.8°C958.44hPa83.63%586ppm2024-07-10 13:16:10
20438weather8080725.8°C958.5hPa79.64%2480ppm2024-07-10 13:00:46
20437weather8080725.8°C958.5hPa79.65%2709ppm2024-07-10 12:45:24
20436weather8080725.7°C958.76hPa80.03%2773ppm2024-07-10 12:14:40
20435weather8080725.7°C958.85hPa83.88%641ppm2024-07-10 11:43:56
20434weather8080725.7°C958.93hPa83.65%634ppm2024-07-10 11:28:33
20433weather8080725.7°C959.03hPa79.86%2519ppm2024-07-10 11:13:09
20432weather8080725.6°C958.99hPa79.91%2798ppm2024-07-10 10:57:45
20431weather8080725.6°C958.96hPa80.09%2851ppm2024-07-10 10:27:01
20430weather8080725.5°C959.21hPa84.2%652ppm2024-07-10 09:56:17
20429weather8080725.5°C959.16hPa84.03%621ppm2024-07-10 09:40:53
20428weather8080725.5°C959.17hPa84.11%691ppm2024-07-10 09:25:28
20427weather8080725.2°C959.11hPa84.06%632ppm2024-07-10 09:10:06
20426weather8080725.2°C958.78hPa83.92%657ppm2024-07-10 08:54:43
20425weather8080725.1°C958.75hPa83.92%642ppm2024-07-10 08:39:20
20424weather8080725.1°C958.72hPa83.92%661ppm2024-07-10 08:23:57
20423weather8080725°C958.52hPa83.74%651ppm2024-07-10 08:08:32
20422weather8080724.8°C958.28hPa83.55%745ppm2024-07-10 07:53:07
20421weather8080724.9°C958.05hPa83.31%631ppm2024-07-10 07:37:48
20420weather8080725.1°C957.78hPa83.27%656ppm2024-07-10 07:24:43
20419weather8080725.1°C958.05hPa79.32%2394ppm2024-07-10 07:22:19
20418weather8080725.1°C957.87hPa79.27%2599ppm2024-07-10 07:06:28
20417weather8080725°C957.64hPa79.52%2457ppm2024-07-10 06:35:44
20416weather8080725°C957.29hPa83.5%408ppm2024-07-10 06:05:00
20415weather8080725°C957.11hPa79.62%2467ppm2024-07-10 05:49:37
20414weather8080725°C957.17hPa79.61%2508ppm2024-07-10 05:34:13
20413weather8080724.9°C956.96hPa83.61%378ppm2024-07-10 05:03:28
20412weather8080724.9°C956.89hPa83.64%395ppm2024-07-10 04:48:05
20411weather8080724.9°C956.74hPa83.63%423ppm2024-07-10 04:32:42
20410weather8080724.9°C956.56hPa83.51%366ppm2024-07-10 04:17:19
20409weather8080724.9°C956.46hPa79.69%2349ppm2024-07-10 04:01:56
20408weather8080725°C956.42hPa79.71%2475ppm2024-07-10 03:46:34
20407weather8080725°C956.42hPa79.92%2488ppm2024-07-10 03:15:49
20406weather8080724.9°C956.48hPa84.01%365ppm2024-07-10 02:45:04
20405weather8080724.9°C956.41hPa83.88%408ppm2024-07-10 02:29:41
20404weather8080724.9°C956.52hPa79.97%2477ppm2024-07-10 02:14:17
20403weather8080724.9°C956.55hPa80.01%2484ppm2024-07-10 01:58:55
20402weather8080724.9°C956.7hPa80.12%2487ppm2024-07-10 01:28:09
20401weather8080724.9°C956.75hPa80.08%2489ppm2024-07-10 00:57:23
20400weather8080724.9°C956.73hPa80.28%2490ppm2024-07-10 00:26:40
20399weather8080724.9°C956.45hPa80.38%2494ppm2024-07-09 23:55:54
20398weather8080724.9°C956.38hPa78.85%2442ppm2024-07-09 23:25:10
20397weather8080724.8°C956.34hPa79.74%2403ppm2024-07-09 22:54:26
20396weather8080724.8°C955.99hPa79.9%2383ppm2024-07-09 22:23:42
20395weather8080724.8°C956.16hPa80.29%2421ppm2024-07-09 21:52:57
20394weather8080724.8°C956.23hPa83.16%292ppm2024-07-09 21:22:12
20393weather8080724.7°C956.12hPa83.4%287ppm2024-07-09 21:06:50
20392weather8080724.8°C956.08hPa83.38%278ppm2024-07-09 20:51:26
20391weather8080724.8°C956.03hPa83.41%290ppm2024-07-09 20:36:03
20390weather8080724.8°C955.94hPa83.43%275ppm2024-07-09 20:20:40
20389weather8080724.8°C955.88hPa83.44%295ppm2024-07-09 20:05:16
20388weather8080724.8°C956.11hPa83.46%256ppm2024-07-09 19:49:52
20387weather8080724.8°C956.03hPa83.45%298ppm2024-07-09 19:34:29
20386weather8080724.8°C955.96hPa83.44%243ppm2024-07-09 19:19:05
20385weather8080724.8°C955.97hPa83.42%253ppm2024-07-09 19:03:41
20384weather8080724.8°C956.14hPa83.39%268ppm2024-07-09 18:48:17
20383weather8080724.8°C956.05hPa83.36%289ppm2024-07-09 18:32:54
20382weather8080724.8°C956.15hPa83.3%271ppm2024-07-09 18:17:30
20381weather8080724.8°C956.19hPa83.08%299ppm2024-07-09 18:02:07
20380weather8080724.7°C956.2hPa79.32%2311ppm2024-07-09 17:46:44
20379weather8080724.8°C956.16hPa79.32%2307ppm2024-07-09 17:31:21
20378weather8080724.8°C956.36hPa79.38%2317ppm2024-07-09 17:00:37
20377weather8080724.7°C956.51hPa83.12%259ppm2024-07-09 16:29:53
20376weather8080724.7°C956.7hPa83.38%255ppm2024-07-09 16:14:29
20375weather8080724.7°C956.77hPa83.12%265ppm2024-07-09 15:59:05
20374weather8080724.7°C957.01hPa83.11%253ppm2024-07-09 15:43:41
20373weather8080724.6°C957.06hPa83.24%269ppm2024-07-09 15:28:17
20372weather8080724.7°C957.26hPa83.19%250ppm2024-07-09 15:12:54
20371weather8080724.7°C957.47hPa83.38%273ppm2024-07-09 14:57:31
20370weather8080724.6°C957.48hPa83.4%276ppm2024-07-09 14:42:08
20369weather8080724.7°C957.55hPa82.96%285ppm2024-07-09 14:26:44
20368weather8080724.7°C957.7hPa83.32%270ppm2024-07-09 14:11:20
20367weather8080724.7°C957.76hPa83.25%267ppm2024-07-09 13:55:57
20366weather8080724.6°C957.9hPa79.31%2384ppm2024-07-09 13:40:34
20365weather8080724.6°C957.98hPa79.33%2324ppm2024-07-09 13:25:11
20364weather8080724.6°C958.05hPa83.8%315ppm2024-07-09 12:54:26
20363weather8080724.6°C958.06hPa83.63%303ppm2024-07-09 12:39:03
20362weather8080724.5°C958.16hPa84.03%292ppm2024-07-09 12:23:39
20361weather8080724.5°C958.24hPa84.12%290ppm2024-07-09 12:08:15
20360weather8080724.5°C958.45hPa84.09%315ppm2024-07-09 11:52:52
20359weather8080724.4°C958.57hPa84.12%306ppm2024-07-09 11:37:30
20358weather8080724.4°C958.7hPa84.15%276ppm2024-07-09 11:22:07
20357weather8080724.4°C958.68hPa84.21%296ppm2024-07-09 11:06:43
20356weather8080724.4°C958.77hPa83.97%293ppm2024-07-09 10:51:19
20355weather8080724.4°C958.75hPa80.09%2267ppm2024-07-09 10:35:56
20354weather8080724.3°C958.87hPa80.09%2318ppm2024-07-09 10:20:34
20353weather8080724.2°C958.92hPa80.25%2338ppm2024-07-09 09:49:51
20352weather8080724.1°C959.09hPa80.42%2319ppm2024-07-09 09:19:06
20351weather8080723.8°C959.2hPa81.83%2231ppm2024-07-09 08:48:21
20350weather8080722.9°C959.17hPa84.46%213ppm2024-07-09 08:17:36
20349weather8080723.3°C959.21hPa83.19%278ppm2024-07-09 08:02:13
20348weather8080722.7°C959.2hPa78.46%2349ppm2024-07-09 07:46:50
20347weather8080724.2°C959.2hPa78.47%2263ppm2024-07-09 07:31:27
20346weather8080724.1°C959.2hPa82.48%240ppm2024-07-09 07:00:41
20345weather8080724.1°C959.06hPa82.62%233ppm2024-07-09 06:45:18
20344weather8080724.1°C959.2hPa82.66%251ppm2024-07-09 06:29:54
20343weather8080724.1°C959.21hPa82.66%217ppm2024-07-09 06:14:32
20342weather8080724.1°C959.23hPa82.74%213ppm2024-07-09 05:59:08
20341weather8080724.1°C959.23hPa82.83%239ppm2024-07-09 05:43:45
20340weather8080724.1°C959.27hPa82.84%204ppm2024-07-09 05:28:22
20339weather8080724.1°C959.15hPa82.87%236ppm2024-07-09 05:12:59
20338weather8080724.1°C959.18hPa82.93%236ppm2024-07-09 04:57:35
20337weather8080724.1°C959.12hPa82.96%219ppm2024-07-09 04:42:12
20336weather8080724.2°C959.33hPa82.94%230ppm2024-07-09 04:26:49
20335weather8080724.2°C959.28hPa82.96%228ppm2024-07-09 04:11:24
20334weather8080724.2°C959.37hPa82.81%216ppm2024-07-09 03:56:02
20333weather8080724.2°C959.52hPa79.06%2256ppm2024-07-09 03:40:39
20332weather8080724.2°C959.41hPa79.1%2256ppm2024-07-09 03:25:15
20331weather8080724.2°C959.47hPa82.91%187ppm2024-07-09 02:54:30
20330weather8080724.2°C959.65hPa82.7%251ppm2024-07-09 02:39:07
20329weather8080724.2°C959.77hPa78.85%2259ppm2024-07-09 02:23:44
20328weather8080724.2°C959.87hPa78.83%2237ppm2024-07-09 02:08:21
20327weather8080724.3°C959.78hPa78.87%2243ppm2024-07-09 01:37:36
20326weather8080724.3°C959.81hPa78.89%2240ppm2024-07-09 01:06:51
20325weather8080724.3°C959.78hPa78.98%2246ppm2024-07-09 00:36:07
20324weather8080724.3°C959.67hPa79.04%2279ppm2024-07-09 00:05:23
20323weather8080724.2°C959.66hPa79.25%2295ppm2024-07-08 23:34:39
20322weather8080724.2°C959.5hPa83.37%349ppm2024-07-08 23:03:54
20321weather8080724.2°C959.48hPa83.43%324ppm2024-07-08 22:48:30
20320weather8080724.1°C959.29hPa83.23%376ppm2024-07-08 22:33:07
20319weather8080724.1°C959.16hPa83.3%404ppm2024-07-08 22:17:44
20318weather8080724.2°C959.29hPa83.35%377ppm2024-07-08 22:02:22
20317weather8080724.2°C959.08hPa83.37%407ppm2024-07-08 21:46:59
20316weather8080724.2°C958.83hPa83.37%437ppm2024-07-08 21:31:36
20315weather8080724.2°C958.76hPa83.32%416ppm2024-07-08 21:16:14
20314weather8080724.2°C958.51hPa83.28%428ppm2024-07-08 21:00:51
20313weather8080724.2°C958.54hPa83.11%411ppm2024-07-08 20:45:28
20312weather8080724.3°C958.55hPa79.05%2529ppm2024-07-08 20:30:04
20311weather8080724.3°C958.49hPa79.03%2498ppm2024-07-08 20:14:41
20310weather8080724.2°C958.39hPa83.34%291ppm2024-07-08 19:43:57
20309weather8080724.3°C958.27hPa83.32%317ppm2024-07-08 19:28:34
20308weather8080724.3°C958.29hPa83.35%295ppm2024-07-08 19:13:10
20307weather8080724.2°C958.27hPa83.3%347ppm2024-07-08 18:57:47
20306weather8080724.3°C958.27hPa82.88%320ppm2024-07-08 18:42:24
20305weather8080724.5°C958.23hPa79.41%2436ppm2024-07-08 18:27:01
20304weather8080724.6°C958.19hPa79.44%2385ppm2024-07-08 18:11:37
20303weather8080724.6°C958.24hPa83.52%302ppm2024-07-08 17:40:53
20302weather8080724.6°C958.32hPa83.45%338ppm2024-07-08 17:25:31
20301weather8080724.3°C958.44hPa83.42%327ppm2024-07-08 17:10:07
20300weather8080724.3°C958.4hPa83.13%352ppm2024-07-08 16:54:44
20299weather8080724.3°C958.4hPa79.32%2376ppm2024-07-08 16:39:20
20298weather8080724.3°C958.53hPa79.32%2403ppm2024-07-08 16:23:56
20297weather8080724.3°C958.81hPa79.35%2433ppm2024-07-08 15:53:12
20296weather8080724.3°C958.91hPa78.57%2403ppm2024-07-08 15:22:27
20295weather8080724.3°C959.11hPa79.55%2448ppm2024-07-08 14:51:42
20294weather8080724.2°C959.2hPa79.71%2213ppm2024-07-08 14:20:57
20293weather8080724.2°C959.35hPa79.69%2470ppm2024-07-08 14:05:35
20292weather8080724.2°C959.5hPa79.46%2480ppm2024-07-08 13:34:49
20291weather8080724.2°C959.61hPa84.13%409ppm2024-07-08 13:04:03
20290weather8080724.1°C959.6hPa83.98%403ppm2024-07-08 12:48:40
20289weather8080724.2°C959.55hPa84.22%396ppm2024-07-08 12:33:18
20288weather8080724.1°C959.6hPa84.3%427ppm2024-07-08 12:17:54
20287weather8080724.1°C959.51hPa84.16%440ppm2024-07-08 12:02:31
20286weather8080724.1°C959.36hPa84.23%404ppm2024-07-08 11:47:07
20285weather8080724°C959.35hPa84.33%538ppm2024-07-08 11:31:44
20284weather8080724.1°C959.47hPa84.16%473ppm2024-07-08 11:16:22
20283weather8080724°C959.49hPa84.05%460ppm2024-07-08 11:01:00
20282weather8080723.9°C959.41hPa80.15%2363ppm2024-07-08 10:45:36
20281weather8080723.9°C959.48hPa80.14%2641ppm2024-07-08 10:30:13
20280weather8080723.8°C959.57hPa80.3%2708ppm2024-07-08 09:59:27
20279weather8080723.5°C959.62hPa81.13%2785ppm2024-07-08 09:28:42
20278weather8080723.7°C959.31hPa84.12%556ppm2024-07-08 08:57:56
20277weather8080723.6°C959.42hPa84.19%514ppm2024-07-08 08:42:32
20276weather8080723.6°C959.36hPa84.44%514ppm2024-07-08 08:27:09
20275weather8080723.5°C959.31hPa84.61%208ppm2024-07-08 08:11:46
20274weather8080722.8°C959.35hPa79.13%2153ppm2024-07-08 07:56:22
20273weather8080722.6°C959.29hPa79.1%2183ppm2024-07-08 07:40:59
20272weather8080724.1°C958.89hPa76.37%2201ppm2024-07-08 07:10:15
20271weather8080724°C958.83hPa76.25%2155ppm2024-07-08 06:39:29
20270weather8080724.1°C958.79hPa76.27%2167ppm2024-07-08 06:24:06
20269weather8080724.1°C958.63hPa79.89%152ppm2024-07-08 05:53:20
20268weather8080724.1°C958.54hPa79.65%176ppm2024-07-08 05:37:57
20267weather8080724.1°C958.49hPa75.97%2173ppm2024-07-08 05:22:34
20266weather8080724.1°C958.5hPa75.96%2154ppm2024-07-08 05:07:12
20265weather8080724.1°C958.24hPa75.93%2158ppm2024-07-08 04:36:28
20264weather8080724.1°C958.07hPa75.88%2168ppm2024-07-08 04:05:41
20263weather8080724.2°C957.91hPa75.9%2152ppm2024-07-08 03:34:56
20262weather8080724.2°C958.38hPa75.86%2144ppm2024-07-08 03:04:13
20261weather8080724.2°C958.44hPa75.98%2167ppm2024-07-08 02:33:29
20260weather8080724.3°C958.17hPa75.83%2209ppm2024-07-08 02:02:42
20259weather8080724.3°C957.85hPa75.84%2158ppm2024-07-08 01:47:20
20258weather8080724.3°C958.1hPa75.86%2172ppm2024-07-08 01:16:36
20257weather8080724.3°C958.04hPa75.9%2186ppm2024-07-08 00:45:52
20256weather8080724.3°C957.86hPa76.02%2195ppm2024-07-08 00:15:07
20255weather8080724.3°C958.09hPa79.62%176ppm2024-07-07 23:44:21
20254weather8080724.3°C957.92hPa76.03%2240ppm2024-07-07 23:28:58
20253weather8080724.3°C957.73hPa76.04%2239ppm2024-07-07 23:13:34
20252weather8080724.3°C957.75hPa79.79%240ppm2024-07-07 22:42:48
20251weather8080724.4°C957.74hPa79.72%253ppm2024-07-07 22:27:25
20250weather8080724.4°C957.71hPa79.67%250ppm2024-07-07 22:12:02
20249weather8080724.4°C957.62hPa79.48%237ppm2024-07-07 21:56:39
20248weather8080724.4°C957.44hPa75.83%2329ppm2024-07-07 21:41:16
20247weather8080724.3°C957.39hPa75.83%2356ppm2024-07-07 21:25:52
20246weather8080724.5°C956.9hPa79.51%257ppm2024-07-07 20:55:07
20245weather8080724.5°C957hPa75.93%1988ppm2024-07-07 20:39:44
20244weather8080724.5°C956.79hPa75.93%2302ppm2024-07-07 20:24:21
20243weather8080724.5°C956.66hPa79.45%273ppm2024-07-07 19:53:38
20242weather8080724.5°C956.65hPa75.86%2343ppm2024-07-07 19:38:15
20241weather8080724.8°C956.69hPa75.82%2402ppm2024-07-07 19:22:52
20240weather8080724.9°C956.67hPa75.77%2476ppm2024-07-07 18:52:07
20239weather8080724.9°C956.54hPa75.61%2428ppm2024-07-07 18:21:21
20238weather8080724.9°C956.68hPa79.2%294ppm2024-07-07 17:50:35
20237weather8080724.9°C956.57hPa79.16%312ppm2024-07-07 17:35:12
20236weather8080724.9°C956.57hPa79.04%308ppm2024-07-07 17:19:50
20235weather8080724.9°C956.7hPa79.02%343ppm2024-07-07 17:04:25
20234weather8080725°C956.74hPa79.03%298ppm2024-07-07 16:49:02
20233weather8080724.9°C956.71hPa78.92%322ppm2024-07-07 16:33:40
20232weather8080725°C956.71hPa78.68%305ppm2024-07-07 16:18:18
20231weather8080724.9°C956.8hPa75.12%2279ppm2024-07-07 16:02:54
20230weather8080724.9°C956.8hPa75.16%2387ppm2024-07-07 15:47:30
20229weather8080724.9°C956.98hPa75.15%2367ppm2024-07-07 15:16:46
20228weather8080724.9°C956.83hPa75.37%2244ppm2024-07-07 14:46:01
20227weather8080724.9°C956.95hPa79.18%205ppm2024-07-07 14:15:16
20226weather8080724.9°C956.91hPa79.26%237ppm2024-07-07 13:59:52
20225weather8080724.9°C956.95hPa79.28%253ppm2024-07-07 13:44:29
20224weather8080724.9°C956.9hPa79.32%217ppm2024-07-07 13:29:06
20223weather8080724.9°C957.08hPa79.36%220ppm2024-07-07 13:13:42
20222weather8080725°C956.86hPa79.37%250ppm2024-07-07 12:58:18
20221weather8080725°C956.99hPa79.42%227ppm2024-07-07 12:42:54
20220weather8080725°C956.89hPa79.46%274ppm2024-07-07 12:27:30
20219weather8080725°C956.92hPa79.45%219ppm2024-07-07 12:12:07
20218weather8080725°C956.79hPa79.49%245ppm2024-07-07 11:56:43
20217weather8080725.1°C956.6hPa79.54%209ppm2024-07-07 11:41:20
20216weather8080725°C956.47hPa79.72%288ppm2024-07-07 11:25:58
20215weather8080725°C956.34hPa79.74%264ppm2024-07-07 11:10:33
20214weather8080725°C956.48hPa79.62%265ppm2024-07-07 10:55:09
20213weather8080725.1°C956.46hPa76.2%2378ppm2024-07-07 10:39:46
20212weather8080725.1°C956.43hPa76.2%2373ppm2024-07-07 10:24:23
20211weather8080725.1°C956.58hPa80.42%370ppm2024-07-07 09:53:39
20210weather8080725.1°C956.56hPa80.58%347ppm2024-07-07 09:38:15
20209weather8080725.1°C956.55hPa80.74%407ppm2024-07-07 09:22:52
20208weather8080725.1°C956.62hPa80.93%450ppm2024-07-07 09:07:30
20207weather8080725.1°C956.31hPa80.95%430ppm2024-07-07 08:52:06
20206weather8080725.1°C956.2hPa77.48%2573ppm2024-07-07 08:36:42
20205weather8080725.1°C956.01hPa77.5%2683ppm2024-07-07 08:21:20
20204weather8080725.1°C956.09hPa78.17%2814ppm2024-07-07 07:50:34
20203weather8080725.1°C955.54hPa80.63%473ppm2024-07-07 07:19:51
20202weather8080725.1°C955.51hPa77.15%2506ppm2024-07-07 07:04:28
20201weather8080725.1°C955.59hPa77.14%2519ppm2024-07-07 06:49:05
20200weather8080725.1°C955.68hPa77.25%2385ppm2024-07-07 06:18:19
20199weather8080725.1°C955.79hPa81.32%302ppm2024-07-07 05:47:33
20198weather8080725.1°C955.62hPa81.36%276ppm2024-07-07 05:32:11
20197weather8080725.1°C955.63hPa81.3%349ppm2024-07-07 05:16:47
20196weather8080725.1°C955.66hPa77.83%2340ppm2024-07-07 05:01:24
20195weather8080725.1°C955.2hPa77.82%2378ppm2024-07-07 04:46:00
20194weather8080725.1°C954.8hPa81.79%296ppm2024-07-07 04:15:15
20193weather8080725.2°C954.51hPa81.7%301ppm2024-07-07 03:59:52
20192weather8080725.2°C954.58hPa78.11%2332ppm2024-07-07 03:44:29
20191weather8080725.2°C954.63hPa78.13%2371ppm2024-07-07 03:29:06
20190weather8080725.2°C954.66hPa78.23%2390ppm2024-07-07 02:58:22
20189weather8080725.2°C954.43hPa78.36%2395ppm2024-07-07 02:27:36
20188weather8080725.2°C954.34hPa78.49%2407ppm2024-07-07 01:56:51
20187weather8080725.2°C954.26hPa78.63%2439ppm2024-07-07 01:26:07
20186weather8080725.3°C953.94hPa78.53%2497ppm2024-07-07 00:55:23
20185weather8080725.2°C953.6hPa82.6%541ppm2024-07-07 00:24:37
20184weather8080725.2°C953.51hPa79.09%2623ppm2024-07-07 00:09:14
20183weather8080725.2°C953.31hPa79.06%2648ppm2024-07-06 23:53:52
20182weather8080725.1°C952.87hPa81.91%461ppm2024-07-06 23:23:09
20181weather8080725.1°C952.81hPa81.8%440ppm2024-07-06 23:07:45
20180weather8080725.1°C952.6hPa81.49%457ppm2024-07-06 22:52:21
20179weather8080725°C952.15hPa81.53%488ppm2024-07-06 22:36:58
20178weather8080725°C952.14hPa81.57%423ppm2024-07-06 22:21:36
20177weather8080725°C952.52hPa81.53%432ppm2024-07-06 22:06:12
20176weather8080725°C952.49hPa81.48%401ppm2024-07-06 21:50:50
20175weather8080725°C951.96hPa81.3%395ppm2024-07-06 21:35:27
20174weather8080725°C951.52hPa77.81%2401ppm2024-07-06 21:20:04
20173weather8080725.1°C951.51hPa77.77%2423ppm2024-07-06 21:04:40
20172weather8080725°C951.46hPa81.51%303ppm2024-07-06 20:33:56
20171weather8080725°C951.3hPa78.06%2346ppm2024-07-06 20:18:32
20170weather8080725.1°C951.09hPa78.06%2324ppm2024-07-06 20:03:08
20169weather8080725°C950.81hPa83.09%232ppm2024-07-06 19:32:22
20168weather8080725°C950.65hPa83.12%274ppm2024-07-06 19:16:59
20167weather8080725°C950.76hPa83.43%279ppm2024-07-06 19:01:34
20166weather8080725°C950.36hPa83.08%333ppm2024-07-06 18:46:11
20165weather8080725.1°C950.31hPa82.8%295ppm2024-07-06 18:30:47
20164weather8080725°C950.23hPa82.27%259ppm2024-07-06 18:15:25
20163weather8080725.1°C950.09hPa78.3%2282ppm2024-07-06 18:00:01
20162weather8080725.1°C950.16hPa78.34%2267ppm2024-07-06 17:44:37
20161weather8080724.9°C949.9hPa79.71%2168ppm2024-07-06 17:13:53
20160weather8080723.6°C947.75hPa84.52%2081ppm2024-07-06 16:43:09
20159weather8080725.3°C945.9hPa71.06%2131ppm2024-07-06 16:12:24
20158weather8080725.4°C946.13hPa71.03%2113ppm2024-07-06 15:57:00
20157weather8080725.2°C946.42hPa72.2%2146ppm2024-07-06 15:26:15
20156weather8080725.1°C946.88hPa76.88%160ppm2024-07-06 14:55:31
20155weather8080725.1°C947.16hPa77.25%195ppm2024-07-06 14:40:08
20154weather8080725°C947.27hPa77.35%234ppm2024-07-06 14:24:44
20153weather8080724.9°C947.37hPa77.43%287ppm2024-07-06 14:09:21
20152weather8080724.9°C947.63hPa77.96%832ppm2024-07-06 13:53:58
20151weather8080724.9°C947.93hPa77.59%320ppm2024-07-06 13:38:34
20150weather8080724.9°C947.93hPa78.71%308ppm2024-07-06 13:23:10
20149weather8080724.8°C948.04hPa78.3%307ppm2024-07-06 13:07:47
20148weather8080724.8°C948.06hPa78.21%349ppm2024-07-06 12:52:24
20147weather8080724.9°C948.15hPa75.15%2370ppm2024-07-06 12:37:00
20146weather8080724.8°C948.38hPa75.14%2391ppm2024-07-06 12:21:37
20145weather8080724.7°C948.54hPa79.04%409ppm2024-07-06 11:50:52
20144weather8080724.6°C948.93hPa79.44%459ppm2024-07-06 11:35:28
20143weather8080724.6°C949hPa79.47%531ppm2024-07-06 11:20:04
20142weather8080724.6°C949.17hPa79.53%573ppm2024-07-06 11:04:41
20141weather8080724.5°C949.16hPa79.56%677ppm2024-07-06 10:49:18
20140weather8080724.5°C949.48hPa79.55%794ppm2024-07-06 10:33:55
20139weather8080724.4°C949.57hPa79.15%241ppm2024-07-06 10:18:31

Nasa satellite image

via Nasa API updated daily and modifications with computer vision https://api.nasa.gov/planetary/earth/imagery? https://api.nasa.gov/planetary/earth/imagery?